Time;durP1;ratioP1;P1;durP2;ratioP2;P2;SDS_P1;SDS_P2;PMS_P1;PMS_P2;Temp;Humidity;BMP_temperature;BMP_pressure;BME280_temperature;BME280_humidity;BME280_pressure;Samples;Min_cycle;Max_cycle;Signal;HPM_P1;HPM_P2
2023/07/31 00:01:46;;;;;;;4.35;1.80;;;14.90;99.90;;;;;;5072358;28;20040;-76
2023/07/31 00:04:12;;;;;;;3.05;1.60;;;14.80;99.90;;;;;;5072595;28;20032;-76
2023/07/31 00:06:37;;;;;;;2.83;1.85;;;14.80;99.90;;;;;;5072394;28;20048;-75
2023/07/31 00:09:03;;;;;;;2.95;1.52;;;14.80;99.90;;;;;;5070608;28;20033;-75
2023/07/31 00:11:29;;;;;;;2.95;1.55;;;14.80;99.90;;;;;;5071911;28;20032;-77
2023/07/31 00:13:54;;;;;;;3.17;1.75;;;14.80;99.90;;;;;;5071898;28;20577;-77
2023/07/31 00:16:20;;;;;;;3.72;1.90;;;14.80;99.90;;;;;;5073073;28;20369;-76
2023/07/31 00:18:46;;;;;;;3.42;1.55;;;14.80;99.90;;;;;;5072519;28;20064;-76
2023/07/31 00:21:11;;;;;;;3.53;1.70;;;14.80;99.90;;;;;;5072501;28;20456;-77
2023/07/31 00:23:37;;;;;;;2.97;1.75;;;14.80;99.90;;;;;;5072527;28;20469;-77
2023/07/31 00:26:03;;;;;;;3.05;2.08;;;14.80;99.90;;;;;;5072935;28;20041;-78
2023/07/31 00:28:28;;;;;;;3.53;1.70;;;14.80;99.90;;;;;;5070830;28;20035;-78
2023/07/31 00:30:54;;;;;;;3.40;1.83;;;14.80;99.90;;;;;;5071001;28;20053;-77
2023/07/31 00:33:20;;;;;;;4.65;1.50;;;14.80;99.90;;;;;;5072196;28;20058;-76
2023/07/31 00:35:46;;;;;;;3.47;2.00;;;14.80;99.90;;;;;;5072605;28;20046;-77
2023/07/31 00:38:11;;;;;;;2.53;1.55;;;14.80;99.90;;;;;;5072100;28;20071;-75
2023/07/31 00:40:37;;;;;;;2.85;1.63;;;14.80;99.90;;;;;;5072211;28;20098;-76
2023/07/31 00:43:03;;;;;;;3.50;2.00;;;14.90;99.90;;;;;;5072125;28;20350;-75
2023/07/31 00:45:29;;;;;;;3.15;1.70;;;14.90;99.90;;;;;;5071514;28;20047;-76
2023/07/31 00:47:55;;;;;;;4.07;1.73;;;14.90;99.90;;;;;;5072291;28;20127;-76
2023/07/31 00:50:24;;;;;;;3.20;1.80;;;14.90;99.90;;;;;;5072294;28;20036;-75
2023/07/31 00:52:50;;;;;;;4.82;1.63;;;14.90;99.90;;;;;;5071791;28;20048;-76
2023/07/31 00:55:16;;;;;;;2.88;1.67;;;14.90;99.90;;;;;;5072095;28;20040;-75
2023/07/31 00:57:42;;;;;;;4.05;1.67;;;14.90;99.90;;;;;;5071625;28;20124;-76
2023/07/31 01:00:08;;;;;;;3.05;1.83;;;14.80;99.90;;;;;;5072520;28;20053;-75
2023/07/31 01:02:35;;;;;;;2.97;1.50;;;14.80;99.90;;;;;;5071205;28;20477;-75
2023/07/31 01:05:02;;;;;;;3.53;1.73;;;14.80;99.90;;;;;;5072256;28;20048;-76
2023/07/31 01:07:51;;;;;;;3.35;1.63;;;14.80;99.90;;;;;;5072439;28;20041;-75
2023/07/31 01:10:23;;;;;;;2.28;1.30;;;14.80;99.90;;;;;;5072014;28;20032;-75
2023/07/31 01:12:51;;;;;;;2.65;1.80;;;14.80;99.90;;;;;;5071848;28;20397;-76
2023/07/31 01:15:17;;;;;;;3.92;1.80;;;14.80;99.90;;;;;;5071734;28;20047;-76
2023/07/31 01:17:43;;;;;;;2.40;1.55;;;14.80;99.90;;;;;;5071371;28;20098;-76
2023/07/31 01:20:14;;;;;;;2.97;1.67;;;14.80;99.90;;;;;;5070904;28;20040;-76
2023/07/31 01:22:58;;;;;;;2.25;1.40;;;14.70;99.90;;;;;;5071410;28;20071;-76
2023/07/31 01:25:46;;;;;;;3.35;1.60;;;14.70;99.90;;;;;;5071959;28;20056;-75
2023/07/31 01:28:20;;;;;;;2.67;1.40;;;14.70;99.90;;;;;;5072326;28;20067;-76
2023/07/31 01:30:48;;;;;;;2.58;1.40;;;14.60;99.90;;;;;;5072196;28;20060;-76
2023/07/31 01:33:15;;;;;;;2.22;1.25;;;14.60;99.90;;;;;;5072240;28;20040;-76
2023/07/31 01:35:44;;;;;;;2.53;1.30;;;14.60;99.90;;;;;;5071958;28;20040;-75
2023/07/31 01:38:10;;;;;;;2.40;1.25;;;14.60;99.90;;;;;;5072270;28;20064;-77
2023/07/31 01:40:36;;;;;;;2.28;1.20;;;14.60;99.90;;;;;;5071633;28;20129;-76
2023/07/31 01:43:01;;;;;;;2.33;1.30;;;14.60;99.90;;;;;;5075070;28;20040;-76
2023/07/31 01:45:27;;;;;;;1.83;1.08;;;14.60;99.90;;;;;;5075187;28;20059;-76
2023/07/31 01:47:53;;;;;;;2.35;1.27;;;14.60;99.90;;;;;;5075903;28;20036;-75
2023/07/31 01:50:19;;;;;;;2.38;1.10;;;14.60;99.90;;;;;;5075253;28;20115;-75
2023/07/31 01:52:44;;;;;;;1.80;1.00;;;14.60;99.90;;;;;;5074820;28;20090;-76
2023/07/31 01:55:10;;;;;;;1.92;1.00;;;14.60;99.90;;;;;;5057740;28;20477;-76
2023/07/31 01:57:37;;;;;;;1.70;1.00;;;14.50;99.90;;;;;;5074626;28;20052;-75
2023/07/31 02:00:03;;;;;;;1.80;0.90;;;14.60;99.90;;;;;;5073842;28;20037;-77
2023/07/31 02:02:29;;;;;;;1.80;1.00;;;14.60;99.90;;;;;;5075424;28;20036;-76
2023/07/31 02:04:55;;;;;;;1.48;0.85;;;14.60;99.90;;;;;;5075341;28;20044;-78
2023/07/31 02:07:20;;;;;;;1.52;0.90;;;14.60;99.90;;;;;;5074025;28;20036;-77
2023/07/31 02:09:47;;;;;;;2.25;0.98;;;14.60;99.90;;;;;;5075078;28;20040;-75
2023/07/31 02:12:14;;;;;;;2.03;1.08;;;14.60;99.90;;;;;;5075191;28;20366;-78
2023/07/31 02:14:40;;;;;;;2.13;0.90;;;14.70;99.90;;;;;;5074824;28;20048;-78
2023/07/31 02:17:06;;;;;;;2.10;1.00;;;14.70;99.90;;;;;;5074254;28;20041;-77
2023/07/31 02:19:32;;;;;;;2.28;1.10;;;14.70;99.90;;;;;;5074870;28;20038;-77
2023/07/31 02:21:58;;;;;;;2.03;1.00;;;14.70;99.90;;;;;;5075091;28;20394;-75
2023/07/31 02:24:24;;;;;;;2.10;1.10;;;14.70;99.90;;;;;;5074707;28;20043;-78
2023/07/31 02:26:50;;;;;;;2.00;1.20;;;14.70;99.90;;;;;;5075196;28;20083;-76
2023/07/31 02:29:15;;;;;;;1.88;1.13;;;14.80;99.90;;;;;;5074426;28;20119;-77
2023/07/31 02:31:41;;;;;;;3.08;1.00;;;14.80;99.90;;;;;;5074737;28;20530;-76
2023/07/31 02:34:07;;;;;;;2.10;1.15;;;14.70;99.90;;;;;;5074691;28;20397;-77
2023/07/31 02:36:32;;;;;;;1.95;0.93;;;14.80;99.90;;;;;;5074502;28;20089;-76
2023/07/31 02:38:58;;;;;;;2.33;0.90;;;14.80;99.90;;;;;;5074752;28;20179;-77
2023/07/31 02:41:24;;;;;;;2.10;1.17;;;14.80;99.90;;;;;;5073981;28;20037;-75
2023/07/31 02:43:49;;;;;;;1.95;0.88;;;14.80;99.90;;;;;;5074300;28;20048;-76
2023/07/31 02:46:15;;;;;;;1.70;0.90;;;14.80;99.90;;;;;;5074632;28;20381;-75
2023/07/31 02:48:41;;;;;;;2.22;0.93;;;14.80;99.90;;;;;;5073689;28;20051;-75
2023/07/31 02:51:06;;;;;;;1.95;0.90;;;14.80;99.90;;;;;;5073604;28;20041;-75
2023/07/31 02:53:32;;;;;;;2.17;1.30;;;14.80;99.90;;;;;;5056355;28;20465;-75
2023/07/31 02:55:58;;;;;;;1.70;0.98;;;14.90;99.90;;;;;;5074021;28;20052;-76
2023/07/31 02:58:23;;;;;;;1.88;1.10;;;14.90;99.90;;;;;;5074125;28;20036;-76
2023/07/31 03:00:49;;;;;;;1.95;1.25;;;14.90;99.90;;;;;;5056319;28;20299;-75
2023/07/31 03:03:14;;;;;;;2.00;1.20;;;14.90;99.90;;;;;;5074329;28;20047;-75
2023/07/31 03:05:40;;;;;;;2.03;1.17;;;15.00;99.90;;;;;;5074288;28;20544;-76
2023/07/31 03:08:06;;;;;;;1.88;1.10;;;15.00;99.90;;;;;;5074127;28;20381;-76
2023/07/31 03:10:31;;;;;;;2.63;1.20;;;15.00;99.90;;;;;;5074049;28;20106;-76
2023/07/31 03:12:57;;;;;;;2.50;1.60;;;15.00;99.90;;;;;;5073997;28;20036;-76
2023/07/31 03:15:23;;;;;;;1.92;1.15;;;15.00;99.90;;;;;;5073694;28;20045;-77
2023/07/31 03:17:48;;;;;;;2.05;1.30;;;15.00;99.90;;;;;;5072716;28;20044;-77
2023/07/31 03:20:14;;;;;;;2.72;1.30;;;15.10;99.90;;;;;;5073310;28;20272;-76
2023/07/31 03:22:40;;;;;;;2.70;1.35;;;15.00;99.90;;;;;;5073929;28;20391;-76
2023/07/31 03:25:06;;;;;;;3.40;1.40;;;15.10;99.90;;;;;;5073951;28;20048;-76
2023/07/31 03:27:32;;;;;;;2.42;1.35;;;15.10;99.90;;;;;;5073498;28;20101;-75
2023/07/31 03:29:57;;;;;;;3.55;1.77;;;15.10;99.90;;;;;;5072106;28;20049;-75
2023/07/31 03:32:23;;;;;;;3.17;1.65;;;15.10;99.90;;;;;;5074002;28;20075;-76
2023/07/31 03:34:49;;;;;;;2.75;1.80;;;15.10;99.90;;;;;;5073756;28;20485;-76
2023/07/31 03:37:15;;;;;;;2.83;1.63;;;15.10;99.90;;;;;;5073207;28;20052;-77
2023/07/31 03:39:41;;;;;;;2.67;1.70;;;15.20;99.90;;;;;;5072433;28;20142;-77
2023/07/31 03:42:06;;;;;;;2.25;1.50;;;15.10;99.90;;;;;;5073462;28;20068;-77
2023/07/31 03:44:32;;;;;;;3.28;1.50;;;15.20;99.90;;;;;;5072868;28;20082;-77
2023/07/31 03:46:58;;;;;;;2.33;1.30;;;15.10;99.90;;;;;;5072566;28;20047;-76
2023/07/31 03:49:23;;;;;;;2.40;1.00;;;15.20;99.90;;;;;;5071964;28;20120;-77
2023/07/31 03:51:50;;;;;;;2.28;1.48;;;15.20;99.90;;;;;;5073664;28;20119;-77
2023/07/31 03:54:15;;;;;;;2.15;1.30;;;15.20;99.90;;;;;;5073359;28;20129;-76
2023/07/31 03:56:41;;;;;;;1.98;1.10;;;15.20;99.90;;;;;;5073332;28;20068;-75
2023/07/31 03:59:07;;;;;;;2.25;1.30;;;15.20;99.90;;;;;;5073500;28;20037;-76
2023/07/31 04:01:33;;;;;;;3.70;0.90;;;15.30;99.90;;;;;;5074191;28;20033;-76
2023/07/31 04:03:58;;;;;;;1.80;0.90;;;15.30;99.90;;;;;;5074270;28;20484;-75
2023/07/31 04:06:24;;;;;;;1.90;1.10;;;15.30;99.90;;;;;;5069849;28;20068;-75
2023/07/31 04:08:50;;;;;;;1.60;0.80;;;15.40;99.90;;;;;;5069347;28;20105;-74
2023/07/31 04:11:15;;;;;;;2.65;1.00;;;15.40;99.90;;;;;;5070854;28;20037;-75
2023/07/31 04:13:41;;;;;;;2.22;1.13;;;15.40;99.90;;;;;;5069513;28;20048;-74
2023/07/31 04:16:07;;;;;;;1.92;0.90;;;15.50;99.90;;;;;;5072854;28;20040;-74
2023/07/31 04:18:32;;;;;;;1.80;1.00;;;15.50;99.90;;;;;;5073234;28;20042;-75
2023/07/31 04:20:58;;;;;;;1.85;1.05;;;15.50;99.90;;;;;;5072648;28;20048;-74
2023/07/31 04:23:27;;;;;;;1.95;0.90;;;15.50;99.90;;;;;;5072768;28;20469;-75
2023/07/31 04:25:52;;;;;;;2.03;0.82;;;15.50;99.90;;;;;;5054287;28;20043;-76
2023/07/31 04:28:18;;;;;;;1.83;0.95;;;15.60;99.90;;;;;;5071241;28;20045;-76
2023/07/31 04:30:44;;;;;;;1.77;0.90;;;15.60;99.90;;;;;;5072545;28;20080;-75
2023/07/31 04:33:09;;;;;;;1.88;0.90;;;15.50;99.90;;;;;;5072713;28;20045;-75
2023/07/31 04:35:35;;;;;;;2.00;0.98;;;15.50;99.90;;;;;;5072574;28;20417;-77
2023/07/31 04:38:01;;;;;;;2.05;0.80;;;15.50;99.90;;;;;;5072431;28;20358;-77
2023/07/31 04:40:26;;;;;;;2.83;1.02;;;15.50;99.90;;;;;;5071498;28;20171;-77
2023/07/31 04:42:52;;;;;;;1.52;0.77;;;15.50;99.90;;;;;;5071891;28;20127;-76
2023/07/31 04:45:18;;;;;;;2.00;1.00;;;15.50;99.90;;;;;;5071282;28;20048;-76
2023/07/31 04:47:43;;;;;;;1.70;0.80;;;15.50;99.90;;;;;;5072914;28;20036;-76
2023/07/31 04:50:09;;;;;;;1.80;1.00;;;15.50;99.90;;;;;;5072175;28;20040;-77
2023/07/31 04:52:35;;;;;;;2.90;1.00;;;15.50;99.90;;;;;;5071978;28;20045;-76
2023/07/31 04:55:01;;;;;;;1.75;0.82;;;15.50;99.90;;;;;;5072319;28;20044;-76
2023/07/31 04:57:26;;;;;;;3.60;1.00;;;15.50;99.90;;;;;;5072722;28;20040;-75
2023/07/31 04:59:52;;;;;;;1.75;0.95;;;15.50;99.90;;;;;;5071819;28;20123;-76
2023/07/31 05:02:18;;;;;;;2.53;1.10;;;15.50;99.90;;;;;;5072537;28;20044;-77
2023/07/31 05:04:43;;;;;;;3.60;1.17;;;15.60;99.90;;;;;;5054444;28;20040;-77
2023/07/31 05:07:09;;;;;;;2.47;1.00;;;15.60;99.90;;;;;;5071949;28;20036;-77
2023/07/31 05:09:35;;;;;;;2.17;1.20;;;15.60;99.90;;;;;;5070929;28;20461;-77
2023/07/31 05:12:00;;;;;;;3.15;1.50;;;15.60;99.90;;;;;;5072768;28;20036;-78
2023/07/31 05:14:26;;;;;;;4.35;1.63;;;15.60;99.90;;;;;;5071210;28;20044;-77
2023/07/31 05:16:52;;;;;;;4.78;1.88;;;15.60;99.90;;;;;;5073765;28;20036;-76
2023/07/31 05:19:18;;;;;;;3.75;2.20;;;15.70;99.90;;;;;;5075898;28;20421;-78
2023/07/31 05:21:43;;;;;;;5.90;2.75;;;15.70;99.90;;;;;;5076155;28;20041;-77
2023/07/31 05:24:10;;;;;;;7.63;2.90;;;15.70;99.90;;;;;;5075724;28;20090;-77
2023/07/31 05:26:36;;;;;;;7.10;3.00;;;15.70;99.90;;;;;;5075227;28;20381;-77
2023/07/31 05:29:02;;;;;;;8.32;3.45;;;15.80;99.90;;;;;;5075436;28;20033;-76
2023/07/31 05:31:28;;;;;;;8.00;3.50;;;15.80;99.90;;;;;;5074356;28;20051;-77
2023/07/31 05:33:53;;;;;;;8.95;3.78;;;15.80;99.90;;;;;;5074167;28;20059;-75
2023/07/31 05:36:19;;;;;;;11.30;3.95;;;15.90;99.90;;;;;;5074648;28;20461;-75
2023/07/31 05:38:45;;;;;;;10.07;4.15;;;15.90;99.90;;;;;;5075884;28;20040;-76
2023/07/31 05:41:12;;;;;;;12.55;4.93;;;15.90;99.90;;;;;;5075840;28;20483;-75
2023/07/31 05:43:37;;;;;;;11.88;4.63;;;15.90;99.90;;;;;;5075749;28;20041;-75
2023/07/31 05:46:03;;;;;;;15.27;4.90;;;16.00;99.90;;;;;;5075638;28;20111;-75
2023/07/31 05:48:29;;;;;;;9.55;4.82;;;15.90;99.90;;;;;;5075532;28;20483;-76
2023/07/31 05:50:54;;;;;;;11.13;4.60;;;16.00;99.90;;;;;;5075512;28;20043;-75
2023/07/31 05:53:20;;;;;;;13.73;4.18;;;16.00;99.90;;;;;;5074322;28;20115;-76
2023/07/31 05:55:46;;;;;;;14.98;4.85;;;16.10;99.90;;;;;;5075333;28;20045;-75
2023/07/31 05:58:11;;;;;;;12.00;5.47;;;16.00;99.90;;;;;;5075076;28;20037;-76
2023/07/31 06:00:37;;;;;;;17.65;6.40;;;16.10;99.90;;;;;;5075975;28;20040;-76
2023/07/31 06:03:03;;;;;;;15.35;5.90;;;16.10;99.90;;;;;;5073941;28;20036;-76
2023/07/31 06:05:29;;;;;;;12.85;5.47;;;16.10;99.90;;;;;;5074485;28;20381;-76
2023/07/31 06:07:55;;;;;;;13.48;5.97;;;16.20;99.90;;;;;;5075224;28;20481;-75
2023/07/31 06:10:21;;;;;;;13.98;6.40;;;16.20;99.90;;;;;;5075306;28;20044;-67
2023/07/31 06:12:47;;;;;;;12.02;5.45;;;16.20;99.90;;;;;;5075465;28;20491;-66
2023/07/31 06:15:13;;;;;;;17.55;6.28;;;16.20;99.90;;;;;;5074988;28;20047;-67
2023/07/31 06:17:38;;;;;;;13.30;5.65;;;16.20;99.90;;;;;;5075385;28;20074;-66
2023/07/31 06:20:06;;;;;;;14.93;6.50;;;16.20;99.90;;;;;;5075137;28;20043;-67
2023/07/31 06:22:31;;;;;;;15.18;6.07;;;16.20;99.90;;;;;;5074915;28;20052;-67
2023/07/31 06:24:57;;;;;;;15.02;6.28;;;16.20;99.90;;;;;;5074748;28;20036;-67
2023/07/31 06:27:23;;;;;;;11.95;6.18;;;16.30;99.90;;;;;;5074832;28;20389;-67
2023/07/31 06:29:49;;;;;;;14.00;7.47;;;16.30;99.90;;;;;;5072342;28;20040;-68
2023/07/31 06:32:15;;;;;;;12.82;6.55;;;16.30;99.90;;;;;;5074809;28;20384;-67
2023/07/31 06:34:40;;;;;;;14.55;7.07;;;16.30;99.90;;;;;;5074969;28;20044;-67
2023/07/31 06:37:06;;;;;;;12.45;7.20;;;16.30;99.90;;;;;;5074797;28;20032;-67
2023/07/31 06:39:32;;;;;;;15.60;6.80;;;16.30;99.90;;;;;;5073396;28;20382;-67
2023/07/31 06:41:57;;;;;;;12.70;6.47;;;16.30;99.90;;;;;;5074222;28;20175;-66
2023/07/31 06:44:23;;;;;;;14.15;6.45;;;16.40;99.90;;;;;;5072857;28;20040;-66
2023/07/31 06:46:49;;;;;;;13.00;6.63;;;16.40;99.90;;;;;;5074661;28;20040;-67
2023/07/31 06:49:17;;;;;;;17.50;6.97;;;16.30;99.90;;;;;;5074284;28;20040;-68
2023/07/31 06:51:44;;;;;;;14.38;7.15;;;16.30;99.90;;;;;;5072585;28;20044;-67
2023/07/31 06:54:09;;;;;;;14.07;6.78;;;16.30;99.90;;;;;;5056462;28;20045;-67
2023/07/31 06:56:35;;;;;;;13.85;6.35;;;16.30;99.90;;;;;;5073997;28;20051;-67
2023/07/31 06:59:01;;;;;;;13.70;6.82;;;16.30;99.90;;;;;;5074081;28;20040;-67
2023/07/31 07:01:28;;;;;;;14.07;6.82;;;16.30;99.90;;;;;;5074069;28;20040;-67
2023/07/31 07:03:54;;;;;;;12.35;6.90;;;16.30;99.90;;;;;;5073800;28;20047;-69
2023/07/31 07:06:20;;;;;;;15.00;7.25;;;16.30;99.90;;;;;;5074032;28;20052;-67
2023/07/31 07:08:45;;;;;;;12.30;6.40;;;16.30;99.90;;;;;;5073955;28;20520;-67
2023/07/31 07:11:11;;;;;;;11.52;5.85;;;16.20;99.90;;;;;;5073852;28;20047;-67
2023/07/31 07:13:37;;;;;;;13.10;5.68;;;16.20;99.90;;;;;;5074020;28;20063;-67
2023/07/31 07:16:02;;;;;;;15.10;6.53;;;16.20;99.90;;;;;;5073221;28;20279;-67
2023/07/31 07:18:28;;;;;;;12.88;6.00;;;16.20;99.90;;;;;;5073613;28;20116;-67
2023/07/31 07:20:54;;;;;;;11.30;5.70;;;16.20;99.90;;;;;;5073515;28;20147;-67
2023/07/31 07:23:20;;;;;;;12.98;4.82;;;16.10;99.90;;;;;;5070104;28;20051;-67
2023/07/31 07:25:47;;;;;;;10.93;5.65;;;16.20;99.90;;;;;;5066526;28;20083;-68
2023/07/31 07:28:13;;;;;;;7.63;4.35;;;16.20;99.90;;;;;;5072456;28;20075;-68
2023/07/31 07:30:39;;;;;;;10.38;4.35;;;16.20;99.90;;;;;;5072628;28;20052;-68
2023/07/31 07:33:05;;;;;;;9.75;4.30;;;16.20;99.90;;;;;;5069303;28;20062;-67
2023/07/31 07:35:34;;;;;;;10.02;4.60;;;16.20;99.90;;;;;;5053482;28;20388;-67
2023/07/31 07:38:00;;;;;;;8.48;4.03;;;16.20;99.90;;;;;;5064647;28;20392;-67
2023/07/31 07:40:26;;;;;;;7.15;3.53;;;16.20;99.90;;;;;;5069097;28;20044;-67
2023/07/31 07:42:52;;;;;;;8.85;3.90;;;16.30;99.90;;;;;;5070999;28;20546;-67
2023/07/31 07:45:17;;;;;;;10.10;3.85;;;16.30;99.90;;;;;;5064800;28;20175;-68
2023/07/31 07:47:43;;;;;;;9.07;4.15;;;16.40;99.90;;;;;;5063758;28;20052;-69
2023/07/31 07:50:09;;;;;;;7.22;3.55;;;16.40;99.90;;;;;;5056065;28;20049;-68
2023/07/31 07:52:35;;;;;;;8.05;3.65;;;16.40;99.90;;;;;;5055546;28;20052;-67
2023/07/31 07:55:00;;;;;;;6.90;4.00;;;16.40;99.90;;;;;;5065493;28;20780;-68
2023/07/31 07:57:27;;;;;;;9.55;4.18;;;16.40;99.90;;;;;;5064967;28;20536;-67
2023/07/31 07:59:52;;;;;;;9.02;4.13;;;16.40;99.90;;;;;;5062488;28;20446;-67
2023/07/31 08:02:18;;;;;;;7.95;3.75;;;16.40;99.90;;;;;;5052386;28;20087;-68
2023/07/31 08:04:44;;;;;;;5.35;3.90;;;16.40;99.90;;;;;;5070232;28;20079;-68
2023/07/31 08:07:12;;;;;;;8.18;3.65;;;16.40;99.90;;;;;;5060289;28;20132;-67
2023/07/31 08:09:39;;;;;;;6.72;3.47;;;16.40;99.90;;;;;;5051396;28;20497;-67
2023/07/31 08:12:06;;;;;;;8.48;4.70;;;16.40;99.90;;;;;;5065649;28;20554;-68
2023/07/31 08:14:31;;;;;;;5.55;3.60;;;16.50;99.90;;;;;;5080813;28;20256;-68
2023/07/31 08:16:57;;;;;;;5.50;3.90;;;16.50;99.90;;;;;;5055083;28;20483;-68
2023/07/31 08:19:23;;;;;;;8.02;4.05;;;16.40;99.90;;;;;;5068500;28;20037;-68
2023/07/31 08:21:48;;;;;;;7.72;3.78;;;16.50;99.90;;;;;;5058594;28;20040;-68
2023/07/31 08:24:14;;;;;;;7.53;3.72;;;16.50;99.90;;;;;;5052135;28;20045;-68
2023/07/31 08:26:40;;;;;;;8.10;3.80;;;16.50;99.90;;;;;;5051350;28;20052;-68
2023/07/31 08:29:06;;;;;;;6.68;3.35;;;16.50;99.90;;;;;;5060909;28;20041;-67
2023/07/31 08:31:31;;;;;;;5.10;3.05;;;16.50;99.90;;;;;;5069643;28;20064;-67
2023/07/31 08:33:57;;;;;;;6.40;3.03;;;16.50;99.90;;;;;;5065534;28;20484;-67
2023/07/31 08:36:23;;;;;;;4.78;2.97;;;16.50;99.90;;;;;;5054447;28;20048;-68
2023/07/31 08:38:50;;;;;;;4.70;2.90;;;16.50;99.90;;;;;;5071434;28;20495;-67
2023/07/31 08:41:18;;;;;;;3.83;2.40;;;16.50;99.90;;;;;;5060011;28;20053;-67
2023/07/31 08:43:46;;;;;;;5.75;2.60;;;16.50;99.90;;;;;;5060403;28;20127;-67
2023/07/31 08:46:13;;;;;;;4.28;2.70;;;16.50;99.90;;;;;;5057385;28;20445;-67
2023/07/31 08:48:42;;;;;;;5.88;2.63;;;16.50;99.90;;;;;;5064760;28;20041;-67
2023/07/31 08:51:07;;;;;;;4.30;2.78;;;16.50;99.90;;;;;;5069841;28;20096;-68
2023/07/31 08:53:33;;;;;;;4.97;2.53;;;16.50;99.90;;;;;;5054496;28;20129;-67
2023/07/31 08:56:00;;;;;;;4.40;2.38;;;16.60;99.90;;;;;;5068537;28;20044;-67
2023/07/31 08:58:30;;;;;;;5.05;2.65;;;16.60;99.90;;;;;;5069632;28;20408;-67
2023/07/31 09:00:56;;;;;;;4.38;2.42;;;16.70;99.90;;;;;;5054921;28;20080;-67
2023/07/31 09:03:24;;;;;;;4.43;2.75;;;16.80;99.90;;;;;;5064227;28;20053;-67
2023/07/31 09:05:51;;;;;;;4.07;2.33;;;16.80;99.90;;;;;;5065978;28;20056;-67
2023/07/31 09:08:19;;;;;;;5.03;2.42;;;16.90;99.90;;;;;;5050990;28;20103;-67
2023/07/31 09:10:46;;;;;;;5.15;2.70;;;17.00;99.90;;;;;;5051082;28;20094;-67
2023/07/31 09:13:15;;;;;;;4.13;2.13;;;17.00;99.90;;;;;;5058547;28;20162;-67
2023/07/31 09:15:44;;;;;;;3.28;1.90;;;17.00;99.90;;;;;;5059706;28;20134;-68
2023/07/31 09:18:10;;;;;;;3.13;1.75;;;17.10;99.90;;;;;;5062578;28;20040;-68
2023/07/31 09:20:37;;;;;;;3.28;2.10;;;17.20;99.90;;;;;;5061844;28;20359;-67
2023/07/31 09:23:11;;;;;;;2.80;1.90;;;17.20;99.90;;;;;;5055018;28;20493;-67
2023/07/31 09:25:39;;;;;;;3.03;1.75;;;17.30;99.90;;;;;;5060208;28;20406;-67
2023/07/31 09:28:09;;;;;;;2.50;1.70;;;17.30;99.90;;;;;;5061709;28;20037;-67
2023/07/31 09:30:53;;;;;;;3.35;1.67;;;17.20;99.90;;;;;;5050200;28;20068;-67
2023/07/31 09:33:19;;;;;;;2.75;1.45;;;17.30;99.90;;;;;;5063019;28;20060;-67
2023/07/31 09:35:47;;;;;;;2.47;1.58;;;17.30;99.90;;;;;;5054700;28;20044;-67
2023/07/31 09:38:15;;;;;;;2.95;1.40;;;17.30;99.90;;;;;;5069666;28;20049;-68
2023/07/31 09:40:42;;;;;;;2.67;1.50;;;17.30;99.90;;;;;;5069357;28;20123;-67
2023/07/31 09:43:13;;;;;;;2.53;1.50;;;17.30;99.90;;;;;;5059654;28;20119;-67
2023/07/31 09:45:41;;;;;;;2.63;1.20;;;17.30;99.90;;;;;;5056501;28;20514;-67
2023/07/31 09:48:16;;;;;;;2.00;1.20;;;17.30;99.90;;;;;;5052839;28;20051;-68
2023/07/31 09:50:47;;;;;;;1.80;0.95;;;17.30;99.90;;;;;;5061269;28;20124;-67
2023/07/31 09:53:13;;;;;;;2.30;1.30;;;17.20;99.90;;;;;;5066252;28;20052;-68
2023/07/31 09:55:40;;;;;;;2.25;1.00;;;17.20;99.90;;;;;;5050591;28;20146;-66
2023/07/31 09:58:09;;;;;;;1.67;1.00;;;17.30;99.90;;;;;;5050030;28;20037;-67
2023/07/31 10:00:35;;;;;;;2.20;1.10;;;17.30;99.90;;;;;;5050344;28;20072;-67
2023/07/31 10:03:09;;;;;;;2.05;1.17;;;17.40;99.90;;;;;;5050470;28;20053;-66
2023/07/31 10:05:50;;;;;;;1.85;0.95;;;17.40;99.90;;;;;;5060169;28;20059;-66
2023/07/31 10:08:18;;;;;;;2.22;1.10;;;17.50;99.90;;;;;;5061095;28;20116;-66
2023/07/31 10:10:45;;;;;;;1.70;1.00;;;17.50;99.90;;;;;;5054147;28;20068;-66
2023/07/31 10:13:12;;;;;;;1.60;0.88;;;17.50;99.90;;;;;;5063316;28;20044;-67
2023/07/31 10:15:38;;;;;;;1.83;1.13;;;17.50;99.90;;;;;;5058100;28;20125;-67
2023/07/31 10:18:06;;;;;;;2.20;1.20;;;17.50;99.90;;;;;;5052777;28;20533;-68
2023/07/31 10:20:33;;;;;;;1.92;1.02;;;17.50;99.90;;;;;;5053246;28;20044;-67
2023/07/31 10:22:59;;;;;;;2.17;1.10;;;17.50;99.90;;;;;;5053671;28;20041;-68
2023/07/31 10:25:27;;;;;;;2.78;1.33;;;17.50;99.90;;;;;;5062158;28;20083;-68
2023/07/31 10:27:54;;;;;;;1.90;1.20;;;17.50;99.90;;;;;;5064899;28;20036;-67
2023/07/31 10:30:24;;;;;;;2.10;1.20;;;17.50;99.90;;;;;;5057452;28;20040;-67
2023/07/31 10:32:52;;;;;;;2.10;1.33;;;17.50;99.90;;;;;;5065074;28;20434;-68
2023/07/31 10:35:18;;;;;;;2.38;1.40;;;17.60;99.90;;;;;;5064219;28;20053;-74
2023/07/31 10:37:44;;;;;;;2.13;1.40;;;17.60;99.90;;;;;;5065980;28;20048;-68
2023/07/31 10:40:19;;;;;;;2.83;1.75;;;17.70;99.90;;;;;;5063045;28;20122;-68
2023/07/31 10:42:55;;;;;;;2.55;1.88;;;17.80;99.90;;;;;;5060922;28;20048;-67
2023/07/31 10:45:42;;;;;;;3.15;2.10;;;17.90;99.90;;;;;;5088381;28;20052;-68
2023/07/31 10:48:15;;;;;;;2.40;1.67;;;18.00;99.90;;;;;;5053300;28;20052;-68
2023/07/31 10:50:59;;;;;;;2.97;2.00;;;18.00;99.90;;;;;;5052636;28;20120;-68
2023/07/31 10:53:29;;;;;;;2.65;1.92;;;18.10;99.90;;;;;;5053383;28;20037;-68
2023/07/31 10:56:06;;;;;;;3.33;1.90;;;18.20;99.90;;;;;;5053426;28;20046;-68
2023/07/31 10:58:33;;;;;;;2.97;1.80;;;18.20;99.90;;;;;;5056419;28;20048;-68
2023/07/31 11:01:04;;;;;;;3.00;2.00;;;18.20;99.90;;;;;;5059048;28;20481;-68
2023/07/31 11:03:52;;;;;;;2.67;1.80;;;18.10;99.90;;;;;;5055311;28;20146;-67
2023/07/31 11:06:18;;;;;;;2.58;1.60;;;18.10;99.90;;;;;;5068032;28;20072;-68
2023/07/31 11:08:48;;;;;;;2.90;2.00;;;18.10;99.90;;;;;;5064364;28;20045;-67
2023/07/31 11:11:16;;;;;;;2.67;1.90;;;18.10;99.90;;;;;;5054230;28;20106;-66
2023/07/31 11:13:54;;;;;;;2.00;1.42;;;18.10;99.90;;;;;;5064362;28;20439;-67
2023/07/31 11:16:25;;;;;;;2.42;1.70;;;18.20;99.90;;;;;;5057602;28;20041;-67
2023/07/31 11:18:52;;;;;;;3.80;1.90;;;18.40;99.90;;;;;;5069822;28;20468;-67
2023/07/31 11:21:24;;;;;;;2.33;1.60;;;18.80;99.90;;;;;;5070362;28;20049;-67
2023/07/31 11:23:56;;;;;;;2.20;1.52;;;19.00;99.90;;;;;;5062135;28;20413;-69
2023/07/31 11:26:24;;;;;;;1.80;1.20;;;19.00;99.90;;;;;;5055994;28;20051;-69
2023/07/31 11:28:50;;;;;;;2.15;1.40;;;18.90;99.90;;;;;;5060097;28;20112;-69
2023/07/31 11:31:17;;;;;;;2.30;1.58;;;18.80;99.90;;;;;;5056311;28;20110;-70
2023/07/31 11:33:43;;;;;;;2.50;1.63;;;18.70;99.90;;;;;;5055783;28;20049;-69
2023/07/31 11:36:20;;;;;;;2.67;1.90;;;18.60;99.90;;;;;;5064389;28;20041;-68
2023/07/31 11:38:45;;;;;;;2.58;1.92;;;18.50;99.90;;;;;;5070572;28;20101;-69
2023/07/31 11:41:14;;;;;;;3.03;1.90;;;18.50;99.90;;;;;;5072953;28;20048;-69
2023/07/31 11:43:40;;;;;;;2.72;1.90;;;18.40;99.90;;;;;;5057565;28;20120;-68
2023/07/31 11:46:09;;;;;;;2.97;2.08;;;18.40;99.90;;;;;;5059625;28;20183;-68
2023/07/31 11:48:36;;;;;;;3.08;1.70;;;18.30;99.90;;;;;;5065615;28;20491;-68
2023/07/31 11:51:07;;;;;;;2.65;1.60;;;18.30;99.90;;;;;;5055499;28;20051;-68
2023/07/31 11:53:41;;;;;;;2.63;1.60;;;18.30;99.90;;;;;;5063739;28;20049;-68
2023/07/31 11:56:11;;;;;;;2.38;1.50;;;18.30;99.90;;;;;;5057116;28;20469;-68
2023/07/31 11:58:38;;;;;;;2.28;1.60;;;18.30;99.90;;;;;;5054398;28;20048;-68
2023/07/31 12:01:04;;;;;;;2.33;1.50;;;18.30;99.90;;;;;;5067539;28;20128;-68
2023/07/31 12:03:31;;;;;;;2.00;1.40;;;18.30;99.90;;;;;;5052134;28;20040;-68
2023/07/31 12:05:58;;;;;;;2.28;1.58;;;18.40;99.90;;;;;;5051323;28;20482;-68
2023/07/31 12:08:24;;;;;;;2.50;1.58;;;18.50;99.90;;;;;;5051605;28;20045;-68
2023/07/31 12:10:51;;;;;;;2.58;1.70;;;18.70;99.90;;;;;;5055493;28;20584;-68
2023/07/31 12:13:21;;;;;;;2.15;1.30;;;18.80;99.90;;;;;;5051350;28;20052;-67
2023/07/31 12:15:46;;;;;;;2.03;1.13;;;18.80;99.90;;;;;;5068452;28;20340;-68
2023/07/31 12:18:19;;;;;;;2.60;1.40;;;18.90;99.90;;;;;;5061941;28;20037;-68
2023/07/31 12:20:47;;;;;;;1.80;1.08;;;19.10;99.90;;;;;;5057589;28;20055;-68
2023/07/31 12:23:30;;;;;;;1.08;0.70;;;19.30;99.90;;;;;;5064066;28;20040;-68
2023/07/31 12:26:05;;;;;;;1.35;0.85;;;19.40;99.90;;;;;;5066416;28;20602;-67
2023/07/31 12:28:45;;;;;;;2.08;0.90;;;19.30;99.90;;;;;;5059676;28;20493;-67
2023/07/31 12:31:12;;;;;;;1.63;0.88;;;19.30;99.90;;;;;;5062994;28;20048;-67
2023/07/31 12:33:40;;;;;;;1.75;0.70;;;19.10;99.90;;;;;;5051833;28;20085;-67
2023/07/31 12:36:13;;;;;;;1.13;0.70;;;18.80;99.90;;;;;;5055905;28;20040;-67
2023/07/31 12:38:40;;;;;;;2.00;0.80;;;18.50;99.90;;;;;;5065979;28;20076;-82
2023/07/31 12:41:06;;;;;;;1.50;0.82;;;18.40;99.90;;;;;;5071468;28;20044;-83
2023/07/31 12:43:33;;;;;;;3.25;1.10;;;18.40;99.90;;;;;;5057656;28;20074;-83
2023/07/31 12:45:59;;;;;;;2.35;0.90;;;18.30;99.90;;;;;;5063582;28;20493;-82